Time;durP1;ratioP1;P1;durP2;ratioP2;P2;SDS_P1;SDS_P2;PMS_P1;PMS_P2;Temp;Humidity;BMP_temperature;BMP_pressure;BME280_temperature;BME280_humidity;BME280_pressure;Samples;Min_cycle;Max_cycle;Signal;HPM_P1;HPM_P2
2021/08/06 00:02:22;;;;;;;3.33;2.50;;;15.60;99.90;;;;;;5065640;28;20442;-56
2021/08/06 00:04:49;;;;;;;2.70;2.40;;;15.60;99.90;;;;;;5059908;28;20441;-56
2021/08/06 00:07:17;;;;;;;4.87;2.87;;;15.60;99.90;;;;;;5056889;28;20511;-56
2021/08/06 00:09:44;;;;;;;5.37;2.30;;;15.80;99.90;;;;;;5061540;28;20485;-56
2021/08/06 00:12:15;;;;;;;2.87;2.67;;;15.70;99.90;;;;;;5063799;28;20451;-56
2021/08/06 00:14:42;;;;;;;3.07;2.87;;;15.60;99.90;;;;;;5072459;28;20451;-56
2021/08/06 00:17:13;;;;;;;3.27;2.70;;;15.50;99.90;;;;;;5068314;28;20450;-56
2021/08/06 00:19:40;;;;;;;3.80;3.00;;;15.50;99.90;;;;;;5073105;28;20490;-56
2021/08/06 00:22:10;;;;;;;3.67;3.00;;;15.40;99.90;;;;;;5070184;28;20828;-56
2021/08/06 00:24:37;;;;;;;3.27;2.97;;;15.40;99.90;;;;;;5065228;28;20457;-56
2021/08/06 00:27:05;;;;;;;3.27;2.97;;;15.40;99.90;;;;;;5075176;28;20451;-56
2021/08/06 00:29:32;;;;;;;3.17;2.87;;;15.50;99.90;;;;;;5075301;28;20976;-56
2021/08/06 00:32:00;;;;;;;5.40;2.93;;;15.50;99.90;;;;;;5074143;28;20526;-56
2021/08/06 00:34:28;;;;;;;3.00;2.70;;;15.60;99.90;;;;;;5074379;28;20454;-56
2021/08/06 00:36:55;;;;;;;4.23;2.77;;;15.60;99.90;;;;;;5074292;28;20449;-56
2021/08/06 00:39:22;;;;;;;2.70;2.30;;;15.40;99.90;;;;;;5073451;28;20515;-56
2021/08/06 00:41:49;;;;;;;4.30;2.20;;;15.50;99.90;;;;;;5073466;28;20489;-56
2021/08/06 00:44:16;;;;;;;2.27;2.07;;;15.40;99.90;;;;;;5068954;28;20792;-56
2021/08/06 00:46:44;;;;;;;2.53;2.33;;;15.40;99.90;;;;;;5073264;28;20475;-56
2021/08/06 00:49:11;;;;;;;5.07;2.50;;;15.40;99.90;;;;;;5072904;28;20871;-56
2021/08/06 00:51:40;;;;;;;2.93;2.50;;;15.30;99.90;;;;;;5073803;28;20458;-56
2021/08/06 00:54:07;;;;;;;3.23;2.27;;;15.40;99.90;;;;;;5073690;28;20944;-56
2021/08/06 00:56:34;;;;;;;2.13;1.93;;;15.40;99.90;;;;;;5074240;28;20476;-56
2021/08/06 00:59:02;;;;;;;2.20;2.00;;;15.50;99.90;;;;;;5073502;28;20474;-55
2021/08/06 01:01:33;;;;;;;4.30;1.90;;;15.50;99.90;;;;;;5074050;28;20827;-56
2021/08/06 01:04:07;;;;;;;2.00;1.90;;;15.50;99.90;;;;;;5073655;28;20443;-56
2021/08/06 01:06:41;;;;;;;2.10;2.00;;;15.50;99.90;;;;;;5073860;28;20508;-56
2021/08/06 01:09:17;;;;;;;2.87;2.50;;;15.50;99.90;;;;;;5073731;28;20446;-56
2021/08/06 01:11:47;;;;;;;3.70;1.50;;;15.60;99.90;;;;;;5073728;28;20443;-56
2021/08/06 01:14:18;;;;;;;2.80;1.70;;;15.60;99.90;;;;;;5072977;28;20905;-56
2021/08/06 01:16:47;;;;;;;2.07;1.90;;;15.60;99.90;;;;;;5073440;28;20450;-56
2021/08/06 01:19:22;;;;;;;2.10;1.90;;;15.60;99.90;;;;;;5073199;28;20533;-56
2021/08/06 01:21:58;;;;;;;3.07;1.67;;;15.70;99.90;;;;;;5073286;28;21165;-56
2021/08/06 01:24:28;;;;;;;2.43;1.90;;;15.70;99.90;;;;;;5073239;28;20940;-56
2021/08/06 01:26:58;;;;;;;3.43;2.17;;;15.60;99.90;;;;;;5072972;28;20451;-56
2021/08/06 01:29:25;;;;;;;2.37;2.17;;;15.60;99.90;;;;;;5072956;28;20581;-56
2021/08/06 01:31:52;;;;;;;2.80;2.00;;;15.60;99.90;;;;;;5072912;28;20458;-56
2021/08/06 01:34:19;;;;;;;5.30;2.20;;;15.60;99.90;;;;;;5073484;28;20508;-56
2021/08/06 01:36:46;;;;;;;1.87;1.77;;;15.70;99.90;;;;;;5073361;28;20447;-56
2021/08/06 01:39:13;;;;;;;2.00;1.70;;;15.60;99.90;;;;;;5072951;28;20506;-57
2021/08/06 01:41:55;;;;;;;2.40;1.90;;;15.70;99.90;;;;;;5072471;28;20963;-56
2021/08/06 01:44:31;;;;;;;2.70;2.50;;;15.70;99.90;;;;;;5072807;28;20476;-56
2021/08/06 01:47:03;;;;;;;2.50;2.00;;;15.70;99.90;;;;;;5073174;28;20446;-56
2021/08/06 01:49:32;;;;;;;1.90;1.80;;;15.60;99.90;;;;;;5073603;28;20462;-56
2021/08/06 01:52:03;;;;;;;2.50;2.30;;;15.80;99.90;;;;;;5072673;28;20556;-56
2021/08/06 01:54:32;;;;;;;2.63;2.43;;;15.70;99.90;;;;;;5071567;28;20451;-56
2021/08/06 01:57:01;;;;;;;3.60;2.40;;;15.60;99.90;;;;;;5073011;28;20550;-56
2021/08/06 01:59:30;;;;;;;3.40;2.50;;;15.70;99.90;;;;;;5072673;28;20587;-56
2021/08/06 02:01:58;;;;;;;2.60;2.40;;;15.60;99.90;;;;;;5072494;28;20454;-56
2021/08/06 02:04:26;;;;;;;3.13;2.77;;;15.50;99.90;;;;;;5072367;28;20500;-56
2021/08/06 02:06:54;;;;;;;2.80;2.33;;;15.50;99.90;;;;;;5070801;28;20454;-55
2021/08/06 02:09:23;;;;;;;3.03;2.73;;;15.40;99.90;;;;;;5072542;28;20516;-56
2021/08/06 02:11:53;;;;;;;3.20;2.40;;;15.40;99.90;;;;;;5072078;28;20451;-56
2021/08/06 02:14:21;;;;;;;3.83;3.40;;;15.40;99.90;;;;;;5072494;28;20454;-55
2021/08/06 02:16:52;;;;;;;2.90;2.40;;;15.40;99.90;;;;;;5071940;28;20520;-56
2021/08/06 02:19:22;;;;;;;8.50;2.10;;;15.40;99.90;;;;;;5072396;28;20494;-56
2021/08/06 02:21:53;;;;;;;3.97;2.30;;;15.40;99.90;;;;;;5072194;28;20538;-56
2021/08/06 02:24:21;;;;;;;4.07;2.30;;;15.50;99.90;;;;;;5071718;28;20508;-56
2021/08/06 02:26:50;;;;;;;4.43;2.77;;;15.50;99.90;;;;;;5071451;28;20539;-56
2021/08/06 02:29:19;;;;;;;3.10;2.30;;;15.50;99.90;;;;;;5071630;28;20474;-55
2021/08/06 02:31:49;;;;;;;3.93;2.10;;;15.50;99.90;;;;;;5071613;28;21016;-56
2021/08/06 02:34:18;;;;;;;2.20;2.00;;;15.50;99.90;;;;;;5068032;28;20505;-55
2021/08/06 02:36:47;;;;;;;2.07;1.90;;;15.40;99.90;;;;;;5070315;28;20466;-56
2021/08/06 02:39:18;;;;;;;2.07;1.93;;;15.60;99.90;;;;;;5071817;28;20519;-56
2021/08/06 02:41:45;;;;;;;3.03;2.73;;;15.50;99.90;;;;;;5070783;28;20879;-56
2021/08/06 02:44:13;;;;;;;2.23;2.00;;;15.30;99.90;;;;;;5071082;28;20459;-56
2021/08/06 02:46:41;;;;;;;2.33;2.13;;;15.40;99.90;;;;;;5071309;28;20493;-56
2021/08/06 02:49:08;;;;;;;2.50;2.30;;;15.40;99.90;;;;;;5072189;28;20447;-56
2021/08/06 02:51:37;;;;;;;1.93;1.83;;;15.30;99.90;;;;;;5071980;28;20893;-56
2021/08/06 02:54:04;;;;;;;3.57;2.40;;;15.20;99.90;;;;;;5071305;28;20994;-56
2021/08/06 02:56:31;;;;;;;5.60;3.13;;;15.10;99.90;;;;;;5071956;28;21008;-56
2021/08/06 02:58:58;;;;;;;3.97;2.60;;;15.20;99.90;;;;;;5071780;28;20457;-56
2021/08/06 03:01:25;;;;;;;2.83;2.30;;;15.10;99.90;;;;;;5072002;28;20520;-56
2021/08/06 03:03:52;;;;;;;3.17;2.80;;;15.10;99.90;;;;;;5070980;28;20465;-56
2021/08/06 03:06:19;;;;;;;2.50;2.13;;;15.00;99.90;;;;;;5071327;28;20447;-56
2021/08/06 03:08:48;;;;;;;4.60;2.10;;;15.10;99.90;;;;;;5071894;28;20447;-56
2021/08/06 03:11:15;;;;;;;5.13;2.30;;;15.20;99.90;;;;;;5071734;28;20467;-56
2021/08/06 03:13:42;;;;;;;3.53;2.07;;;15.10;99.90;;;;;;5071172;28;20457;-56
2021/08/06 03:16:09;;;;;;;3.00;2.20;;;15.10;99.90;;;;;;5051545;28;20508;-56
2021/08/06 03:18:37;;;;;;;3.10;2.40;;;15.20;99.90;;;;;;5051739;28;20481;-56
2021/08/06 03:21:04;;;;;;;3.20;2.57;;;15.10;99.90;;;;;;5051556;28;20498;-56
2021/08/06 03:23:31;;;;;;;3.10;2.20;;;15.20;99.90;;;;;;5070875;28;20447;-56
2021/08/06 03:26:00;;;;;;;3.13;2.37;;;15.30;99.90;;;;;;5071165;28;20473;-56
2021/08/06 03:28:27;;;;;;;2.77;2.30;;;15.30;99.90;;;;;;5071189;28;20503;-56
2021/08/06 03:30:55;;;;;;;5.13;2.23;;;15.40;99.90;;;;;;5094397;22;20486;-51
2021/08/06 03:33:22;;;;;;;4.63;2.40;;;15.40;99.90;;;;;;5070717;28;20454;-52
2021/08/06 03:35:49;;;;;;;2.43;2.03;;;15.30;99.90;;;;;;5087731;28;20454;-51
2021/08/06 03:38:19;;;;;;;2.83;2.60;;;15.40;99.90;;;;;;5088128;28;20442;-51
2021/08/06 03:40:46;;;;;;;3.30;2.30;;;15.30;99.90;;;;;;5071158;28;20483;-52
2021/08/06 03:43:15;;;;;;;2.27;2.00;;;15.30;99.90;;;;;;5070894;28;20470;-51
2021/08/06 03:45:42;;;;;;;3.83;1.93;;;15.30;99.90;;;;;;5070141;28;20447;-51
2021/08/06 03:48:10;;;;;;;2.77;2.30;;;15.30;99.90;;;;;;5069544;28;20454;-52
2021/08/06 03:50:38;;;;;;;2.30;2.10;;;15.40;99.90;;;;;;5069959;28;20512;-53
2021/08/06 03:53:06;;;;;;;2.30;2.10;;;15.50;99.90;;;;;;5071148;28;20450;-53
2021/08/06 03:55:33;;;;;;;4.43;2.20;;;15.40;99.90;;;;;;5072030;28;20450;-50
2021/08/06 03:58:01;;;;;;;1.80;1.70;;;15.30;99.90;;;;;;5091224;28;20449;-51
2021/08/06 04:00:33;;;;;;;2.00;1.80;;;15.20;99.90;;;;;;5091338;28;20489;-50
2021/08/06 04:03:00;;;;;;;1.63;1.53;;;15.10;99.90;;;;;;5091109;28;20442;-50
2021/08/06 04:05:27;;;;;;;1.60;1.50;;;15.20;99.90;;;;;;5076989;28;20461;-51
2021/08/06 04:07:54;;;;;;;1.70;1.57;;;15.30;99.90;;;;;;5073475;28;20451;-49
2021/08/06 04:10:23;;;;;;;2.10;1.90;;;15.30;99.90;;;;;;5091157;28;20969;-50
2021/08/06 04:12:51;;;;;;;5.43;1.80;;;15.30;99.90;;;;;;5091185;28;20495;-50
2021/08/06 04:15:18;;;;;;;1.93;1.83;;;15.40;99.90;;;;;;5082088;28;20508;-49
2021/08/06 04:17:47;;;;;;;2.47;1.97;;;15.40;99.90;;;;;;5074368;28;20449;-50
2021/08/06 04:20:14;;;;;;;2.20;2.03;;;15.30;99.90;;;;;;5061267;28;20484;-50
2021/08/06 04:22:42;;;;;;;2.50;2.30;;;15.20;99.90;;;;;;5074167;28;20512;-51
2021/08/06 04:25:11;;;;;;;3.20;1.90;;;15.20;99.90;;;;;;5073996;28;20956;-50
2021/08/06 04:27:39;;;;;;;2.40;1.70;;;15.20;99.90;;;;;;5074289;28;20458;-51
2021/08/06 04:30:07;;;;;;;2.40;1.80;;;15.10;99.90;;;;;;5074150;28;20478;-50
2021/08/06 04:32:35;;;;;;;2.03;1.90;;;15.30;99.90;;;;;;5073949;28;20443;-50
2021/08/06 04:35:03;;;;;;;4.37;1.83;;;15.30;99.90;;;;;;5065391;28;20949;-51
2021/08/06 04:37:30;;;;;;;1.97;1.70;;;15.30;99.90;;;;;;5054391;28;20451;-50
2021/08/06 04:39:57;;;;;;;2.80;1.80;;;15.30;99.90;;;;;;5054001;28;20484;-50
2021/08/06 04:42:24;;;;;;;1.90;1.80;;;15.40;99.90;;;;;;5054038;28;20456;-50
2021/08/06 04:44:51;;;;;;;1.90;1.80;;;15.50;99.90;;;;;;5060468;28;20496;-51
2021/08/06 04:47:18;;;;;;;1.93;1.80;;;15.50;99.90;;;;;;5074164;28;20457;-50
2021/08/06 04:49:45;;;;;;;2.53;1.90;;;15.60;99.90;;;;;;5073589;28;20470;-51
2021/08/06 04:52:14;;;;;;;2.00;1.80;;;15.50;99.90;;;;;;5073690;28;20446;-51
2021/08/06 04:54:41;;;;;;;2.33;1.87;;;15.60;99.90;;;;;;5068679;28;20444;-50
2021/08/06 04:57:08;;;;;;;2.00;1.80;;;15.50;99.90;;;;;;5053728;28;20866;-51
2021/08/06 04:59:35;;;;;;;2.50;2.17;;;15.50;99.90;;;;;;5053662;28;20498;-50
2021/08/06 05:02:02;;;;;;;1.67;1.57;;;15.50;99.90;;;;;;5053896;28;20506;-51
2021/08/06 05:04:29;;;;;;;2.60;1.63;;;15.50;99.90;;;;;;5056659;28;20509;-50
2021/08/06 05:06:56;;;;;;;2.00;1.90;;;15.50;99.90;;;;;;5073789;28;20451;-51
2021/08/06 05:09:24;;;;;;;3.83;1.53;;;15.60;99.90;;;;;;5073644;28;20461;-49
2021/08/06 05:11:51;;;;;;;1.50;1.40;;;15.50;99.90;;;;;;5073395;28;20447;-50
2021/08/06 05:14:18;;;;;;;2.07;1.40;;;15.50;99.90;;;;;;5072029;28;20459;-50
2021/08/06 05:16:45;;;;;;;2.63;2.03;;;15.60;99.90;;;;;;5053599;28;20455;-51
2021/08/06 05:19:12;;;;;;;1.77;1.60;;;15.70;99.90;;;;;;5053279;28;20875;-50
2021/08/06 05:21:39;;;;;;;1.80;1.70;;;15.70;99.90;;;;;;5053401;28;20491;-50
2021/08/06 05:24:06;;;;;;;1.80;1.70;;;15.70;99.90;;;;;;5053010;28;20452;-51
2021/08/06 05:26:35;;;;;;;3.07;1.73;;;15.70;99.90;;;;;;5072811;28;21022;-49
2021/08/06 05:29:01;;;;;;;2.97;1.77;;;15.70;99.90;;;;;;5073309;28;20876;-50
2021/08/06 05:31:28;;;;;;;2.00;1.73;;;15.70;99.90;;;;;;5072986;28;20478;-50
2021/08/06 05:33:55;;;;;;;1.97;1.70;;;15.70;99.90;;;;;;5071392;28;20443;-50
2021/08/06 05:36:22;;;;;;;1.87;1.77;;;15.70;99.90;;;;;;5070539;28;20451;-50
2021/08/06 05:38:50;;;;;;;3.77;1.97;;;15.60;99.90;;;;;;5072787;28;20500;-50
2021/08/06 05:41:17;;;;;;;1.90;1.70;;;15.60;99.90;;;;;;5072725;28;20483;-50
2021/08/06 05:43:46;;;;;;;2.37;1.90;;;15.60;99.90;;;;;;5073104;28;20465;-50
2021/08/06 05:46:13;;;;;;;1.50;1.40;;;15.50;99.90;;;;;;5072590;28;20451;-50
2021/08/06 05:48:40;;;;;;;1.90;1.80;;;15.60;99.90;;;;;;5072876;28;20451;-50
2021/08/06 05:51:07;;;;;;;1.83;1.63;;;15.60;99.90;;;;;;5072007;28;20474;-51
2021/08/06 05:53:34;;;;;;;2.00;1.80;;;15.60;99.90;;;;;;5071409;28;20450;-50
2021/08/06 05:56:01;;;;;;;1.70;1.60;;;15.70;99.90;;;;;;5072533;28;20511;-50
2021/08/06 05:58:28;;;;;;;3.53;1.70;;;15.70;99.90;;;;;;5077934;28;20445;-50
2021/08/06 06:00:58;;;;;;;2.60;1.70;;;15.90;99.90;;;;;;5077419;28;20485;-49
2021/08/06 06:03:25;;;;;;;2.50;1.87;;;16.00;99.90;;;;;;5060435;28;20481;-49
2021/08/06 06:05:52;;;;;;;2.23;1.80;;;15.90;99.90;;;;;;5077638;28;20449;-50
2021/08/06 06:08:19;;;;;;;2.00;1.90;;;15.90;99.90;;;;;;5092873;28;20507;-50
2021/08/06 06:10:46;;;;;;;3.00;1.70;;;15.80;99.90;;;;;;5092676;28;20469;-50
2021/08/06 06:13:13;;;;;;;1.87;1.70;;;15.80;99.90;;;;;;5085522;28;20447;-51
2021/08/06 06:15:40;;;;;;;2.23;2.10;;;15.70;99.90;;;;;;5071618;28;21191;-50
2021/08/06 06:18:09;;;;;;;3.90;2.57;;;15.80;99.90;;;;;;5067130;28;20448;-49
2021/08/06 06:20:36;;;;;;;2.57;2.27;;;15.70;99.90;;;;;;5052250;28;20483;-49
2021/08/06 06:23:03;;;;;;;2.70;2.10;;;15.70;99.90;;;;;;5063793;28;20447;-50
2021/08/06 06:25:30;;;;;;;2.10;1.90;;;15.70;99.90;;;;;;5072422;28;20451;-50
2021/08/06 06:27:59;;;;;;;2.87;2.23;;;15.80;99.90;;;;;;5072095;28;20484;-49
2021/08/06 06:30:29;;;;;;;3.70;1.93;;;15.80;99.90;;;;;;5071874;28;20475;-50
2021/08/06 06:32:57;;;;;;;3.43;2.17;;;16.00;99.90;;;;;;5069158;28;20452;-49
2021/08/06 06:35:26;;;;;;;2.93;2.40;;;16.00;99.90;;;;;;5079380;28;20495;-50
2021/08/06 06:37:54;;;;;;;2.50;2.23;;;16.20;99.90;;;;;;5071001;28;21030;-50
2021/08/06 06:40:22;;;;;;;2.73;2.20;;;16.40;99.90;;;;;;5068863;28;20467;-52
2021/08/06 06:42:50;;;;;;;3.37;2.67;;;16.60;99.90;;;;;;5059847;28;20891;-51
2021/08/06 06:45:18;;;;;;;2.50;2.20;;;16.80;99.90;;;;;;5069936;28;20451;-51
2021/08/06 06:47:47;;;;;;;2.83;2.20;;;17.00;99.90;;;;;;5055990;28;20474;-50
2021/08/06 06:50:17;;;;;;;2.17;1.97;;;17.20;99.90;;;;;;5060215;28;20514;-51
2021/08/06 06:52:47;;;;;;;2.33;2.07;;;17.90;99.90;;;;;;5071538;28;20450;-51
2021/08/06 06:55:14;;;;;;;3.33;2.50;;;19.10;99.90;;;;;;5068570;28;20504;-51
2021/08/06 06:57:43;;;;;;;2.47;2.23;;;19.60;99.90;;;;;;5057406;28;20903;-50
2021/08/06 07:00:11;;;;;;;3.73;2.10;;;19.70;99.90;;;;;;5060147;28;20915;-50
2021/08/06 07:02:38;;;;;;;2.00;1.80;;;20.20;99.90;;;;;;5057919;28;21094;-50
2021/08/06 07:05:06;;;;;;;2.20;1.80;;;20.50;99.90;;;;;;5071310;28;20458;-51
2021/08/06 07:07:33;;;;;;;2.27;2.00;;;20.30;99.90;;;;;;5071749;28;20450;-51
2021/08/06 07:10:01;;;;;;;3.07;2.03;;;20.30;99.90;;;;;;5071732;28;20470;-50
2021/08/06 07:12:28;;;;;;;1.70;1.60;;;20.20;99.90;;;;;;5071435;28;20517;-50
2021/08/06 07:14:55;;;;;;;1.80;1.50;;;19.80;99.90;;;;;;5084082;28;20515;-50
2021/08/06 07:17:22;;;;;;;2.07;1.80;;;19.70;99.90;;;;;;5091738;28;20523;-50
2021/08/06 07:19:49;;;;;;;2.50;2.00;;;19.80;99.90;;;;;;5091757;28;20619;-50
2021/08/06 07:22:16;;;;;;;2.03;1.87;;;20.70;99.90;;;;;;5065858;28;20482;-50
2021/08/06 07:24:43;;;;;;;1.97;1.70;;;22.00;99.90;;;;;;5051863;28;20447;-50
2021/08/06 07:27:11;;;;;;;2.47;1.80;;;22.90;99.90;;;;;;5051565;28;20509;-51
2021/08/06 07:29:38;;;;;;;2.73;1.80;;;24.20;99.90;;;;;;5051119;28;21062;-50
2021/08/06 07:32:06;;;;;;;3.13;1.60;;;25.40;99.90;;;;;;5058821;28;20467;-51
2021/08/06 07:34:33;;;;;;;2.60;1.63;;;25.10;99.90;;;;;;5069095;28;20509;-52
2021/08/06 07:37:00;;;;;;;1.70;1.60;;;24.40;99.90;;;;;;5069416;28;20515;-51
2021/08/06 07:39:27;;;;;;;2.00;1.60;;;23.90;99.90;;;;;;5064866;28;20455;-51
2021/08/06 07:41:54;;;;;;;1.73;1.50;;;23.70;99.90;;;;;;5053765;28;20540;-51
2021/08/06 07:44:22;;;;;;;2.33;1.40;;;24.30;99.90;;;;;;5069979;28;20923;-50
2021/08/06 07:46:49;;;;;;;1.60;1.50;;;24.00;99.90;;;;;;5068406;28;20209;-51
2021/08/06 07:49:16;;;;;;;2.43;1.63;;;24.10;99.90;;;;;;5072378;28;20446;-51
2021/08/06 07:51:43;;;;;;;5.37;1.50;;;24.40;99.90;;;;;;5073596;28;20508;-51
2021/08/06 07:54:10;;;;;;;1.70;1.60;;;24.90;99.90;;;;;;5070659;28;20470;-51
2021/08/06 07:56:37;;;;;;;1.80;1.70;;;25.30;99.90;;;;;;5072853;28;20501;-50
2021/08/06 07:59:04;;;;;;;2.57;1.60;;;24.80;99.90;;;;;;5074459;28;20447;-51
2021/08/06 08:01:32;;;;;;;1.53;1.33;;;24.50;99.90;;;;;;5071593;28;20490;-51
2021/08/06 08:03:59;;;;;;;2.90;1.77;;;24.30;99.90;;;;;;5072625;28;20546;-51
2021/08/06 08:06:26;;;;;;;1.73;1.50;;;25.00;99.90;;;;;;5061535;28;20517;-52
2021/08/06 08:08:53;;;;;;;3.47;1.67;;;25.60;99.90;;;;;;5068712;28;20443;-52
2021/08/06 08:11:20;;;;;;;2.27;1.90;;;25.60;99.90;;;;;;5074505;28;20516;-52
2021/08/06 08:13:47;;;;;;;6.10;1.83;;;25.60;99.90;;;;;;5074593;28;20512;-51
2021/08/06 08:16:15;;;;;;;1.70;1.60;;;25.00;99.90;;;;;;5073124;28;20508;-51
2021/08/06 08:18:43;;;;;;;2.30;1.53;;;24.40;99.90;;;;;;5074926;28;20450;-51
2021/08/06 08:21:10;;;;;;;3.23;1.30;;;24.00;99.90;;;;;;5074352;28;20536;-50
2021/08/06 08:23:37;;;;;;;2.57;1.70;;;23.70;99.90;;;;;;5074049;28;20496;-52
2021/08/06 08:26:04;;;;;;;1.53;1.43;;;23.20;99.90;;;;;;5057373;28;20949;-51
2021/08/06 08:28:31;;;;;;;2.20;1.77;;;23.20;99.90;;;;;;5054680;28;20512;-51
2021/08/06 08:30:58;;;;;;;1.87;1.77;;;23.10;99.90;;;;;;5054284;28;20535;-51
2021/08/06 08:33:26;;;;;;;1.97;1.67;;;23.10;99.90;;;;;;5054341;28;20452;-52
2021/08/06 08:35:55;;;;;;;1.70;1.60;;;22.90;99.90;;;;;;5068825;28;20466;-51
2021/08/06 08:38:22;;;;;;;1.53;1.43;;;22.80;99.90;;;;;;5074121;28;20516;-51
2021/08/06 08:40:50;;;;;;;2.07;1.97;;;23.00;99.90;;;;;;5074200;28;20471;-51
2021/08/06 08:43:17;;;;;;;1.60;1.50;;;23.40;99.90;;;;;;5074050;28;20547;-51
2021/08/06 08:45:44;;;;;;;1.67;1.57;;;23.30;99.90;;;;;;5060375;28;20532;-52
2021/08/06 08:48:13;;;;;;;1.70;1.60;;;23.40;99.90;;;;;;5053995;28;20455;-52
2021/08/06 08:50:41;;;;;;;1.60;1.50;;;23.60;99.90;;;;;;5053663;28;20865;-50
2021/08/06 08:53:10;;;;;;;2.60;1.40;;;23.70;99.90;;;;;;5053912;28;20795;-51
2021/08/06 08:55:39;;;;;;;1.73;1.63;;;23.30;99.90;;;;;;5066028;28;20455;-51
2021/08/06 08:58:07;;;;;;;4.10;1.97;;;23.50;99.90;;;;;;5073727;28;20512;-50
2021/08/06 09:00:34;;;;;;;2.47;1.80;;;23.50;99.90;;;;;;5073376;28;20466;-51
2021/08/06 09:03:01;;;;;;;1.80;1.70;;;23.30;99.90;;;;;;5073356;28;20486;-51
2021/08/06 09:05:28;;;;;;;2.57;2.30;;;23.10;99.90;;;;;;5073335;28;20462;-51
2021/08/06 09:07:56;;;;;;;2.60;1.80;;;23.00;99.90;;;;;;5074188;28;20474;-51
2021/08/06 09:10:27;;;;;;;2.10;2.00;;;23.30;99.90;;;;;;5073487;28;20494;-52
2021/08/06 09:12:57;;;;;;;2.63;2.00;;;23.40;99.90;;;;;;5073445;28;20466;-52
2021/08/06 09:15:47;;;;;;;2.60;1.77;;;23.20;99.90;;;;;;5072738;28;20450;-51
2021/08/06 09:18:28;;;;;;;2.13;1.60;;;22.80;99.90;;;;;;5073764;28;20461;-52
2021/08/06 09:20:57;;;;;;;1.97;1.77;;;22.80;99.90;;;;;;5073280;28;20526;-52
2021/08/06 09:23:45;;;;;;;3.53;2.13;;;22.70;99.90;;;;;;5072989;28;20490;-52
2021/08/06 09:26:44;;;;;;;2.23;2.03;;;22.40;99.90;;;;;;5056564;28;20493;-52
2021/08/06 09:29:13;;;;;;;1.93;1.83;;;22.00;99.90;;;;;;5053416;28;20470;-51
2021/08/06 09:31:43;;;;;;;2.70;2.03;;;21.70;99.90;;;;;;5110500;22;20501;-57
2021/08/06 09:34:19;;;;;;;2.20;1.97;;;22.10;99.90;;;;;;5092645;28;20502;-57
2021/08/06 09:36:59;;;;;;;4.20;2.23;;;22.20;99.90;;;;;;5073165;28;20446;-57
2021/08/06 09:39:31;;;;;;;2.83;2.40;;;22.40;99.90;;;;;;5073050;28;20537;-56
2021/08/06 09:42:00;;;;;;;1.80;1.70;;;22.70;99.90;;;;;;5052386;28;20542;-57
2021/08/06 09:44:29;;;;;;;1.60;1.50;;;22.90;99.90;;;;;;5054694;28;20452;-56
2021/08/06 09:46:57;;;;;;;1.93;1.83;;;22.20;99.90;;;;;;5073014;28;20450;-57
2021/08/06 09:49:26;;;;;;;2.10;1.90;;;22.00;99.90;;;;;;5072861;28;20453;-57
2021/08/06 09:51:53;;;;;;;3.10;1.90;;;22.10;99.90;;;;;;5072405;28;20524;-57
2021/08/06 09:54:23;;;;;;;3.73;1.60;;;22.50;99.90;;;;;;5072340;28;20944;-57
2021/08/06 09:57:03;;;;;;;2.23;1.70;;;22.80;99.90;;;;;;5072874;28;20450;-57
2021/08/06 09:59:33;;;;;;;2.40;2.10;;;23.00;99.90;;;;;;5072762;28;20446;-57
2021/08/06 10:02:25;;;;;;;1.97;1.77;;;22.90;99.90;;;;;;5072248;28;20478;-57
2021/08/06 10:05:04;;;;;;;6.40;2.13;;;22.90;99.90;;;;;;5062371;28;20462;-57
2021/08/06 10:07:33;;;;;;;2.20;2.00;;;22.90;99.90;;;;;;5072359;28;20500;-57
2021/08/06 10:10:00;;;;;;;2.60;1.77;;;23.00;99.90;;;;;;5072395;28;20466;-56
2021/08/06 10:12:29;;;;;;;7.13;2.07;;;23.50;99.90;;;;;;5071364;28;20442;-56
2021/08/06 10:14:56;;;;;;;1.90;1.80;;;23.60;99.90;;;;;;5071899;28;20447;-57
2021/08/06 10:17:24;;;;;;;2.23;2.00;;;23.60;99.90;;;;;;5072210;28;20788;-56
2021/08/06 10:19:51;;;;;;;2.73;1.80;;;23.00;99.90;;;;;;5071755;28;20500;-57
2021/08/06 10:22:19;;;;;;;3.03;1.80;;;22.80;99.90;;;;;;5071768;28;20630;-57
2021/08/06 10:24:48;;;;;;;2.17;1.80;;;22.70;99.90;;;;;;5071807;28;20500;-57
2021/08/06 10:27:19;;;;;;;5.60;1.80;;;22.80;99.90;;;;;;5071748;28;20966;-57
2021/08/06 10:30:00;;;;;;;1.90;1.57;;;23.30;99.90;;;;;;5071808;28;20522;-57
2021/08/06 10:32:28;;;;;;;1.93;1.83;;;23.30;99.90;;;;;;5072141;28;20443;-59
2021/08/06 10:35:22;;;;;;;2.10;1.93;;;23.30;99.90;;;;;;5071699;28;20451;-57
2021/08/06 10:38:03;;;;;;;1.87;1.77;;;23.40;99.90;;;;;;5072062;28;20497;-60
2021/08/06 10:41:00;;;;;;;2.27;1.73;;;23.00;99.90;;;;;;5071781;28;20459;-59
2021/08/06 10:43:48;;;;;;;2.23;1.93;;;22.90;99.90;;;;;;5029459;28;20534;-57
2021/08/06 10:46:18;;;;;;;1.90;1.80;;;24.00;99.90;;;;;;5067528;28;20986;-58
2021/08/06 10:48:46;;;;;;;2.00;1.80;;;25.10;99.90;;;;;;5070738;28;20473;-58
2021/08/06 10:51:32;;;;;;;3.43;1.60;;;26.00;99.90;;;;;;5068778;28;20470;-57
2021/08/06 10:54:27;;;;;;;2.77;1.80;;;25.90;99.90;;;;;;5062394;28;20466;-57
2021/08/06 10:57:28;;;;;;;2.27;1.83;;;24.60;99.90;;;;;;5061865;28;20467;-55
2021/08/06 10:59:56;;;;;;;2.10;2.00;;;23.30;99.90;;;;;;5063164;28;20519;-56
2021/08/06 11:02:47;;;;;;;1.93;1.63;;;23.40;99.90;;;;;;5070864;28;20514;-56
2021/08/06 11:05:45;;;;;;;1.97;1.77;;;23.80;99.90;;;;;;5070978;28;20937;-56
2021/08/06 11:08:56;;;;;;;1.80;1.53;;;24.00;99.90;;;;;;5065523;28;20468;-56
2021/08/06 11:11:52;;;;;;;2.00;1.80;;;23.60;99.90;;;;;;5067150;28;20800;-56
2021/08/06 11:14:55;;;;;;;1.90;1.80;;;24.10;99.90;;;;;;5070819;28;20443;-57
2021/08/06 11:17:23;;;;;;;3.00;1.90;;;24.80;99.90;;;;;;5060375;28;20438;-57
2021/08/06 11:19:54;;;;;;;2.50;2.10;;;24.90;99.90;;;;;;5066482;28;20447;-57
2021/08/06 11:22:25;;;;;;;1.70;1.60;;;24.00;99.90;;;;;;5059817;28;20487;-56
2021/08/06 11:24:54;;;;;;;2.50;2.00;;;24.30;99.90;;;;;;5064380;28;20925;-57
2021/08/06 11:27:22;;;;;;;2.07;1.83;;;24.40;99.90;;;;;;5073861;28;20447;-56
2021/08/06 11:30:00;;;;;;;2.10;2.00;;;24.40;99.90;;;;;;5075112;28;20497;-56
2021/08/06 11:32:27;;;;;;;4.10;1.90;;;24.40;99.90;;;;;;5075050;28;20483;-55
2021/08/06 11:34:58;;;;;;;2.33;2.13;;;24.20;99.90;;;;;;5073751;28;20446;-56
2021/08/06 11:37:27;;;;;;;4.03;2.00;;;24.10;99.90;;;;;;5060712;28;20504;-56
2021/08/06 11:40:11;;;;;;;3.50;1.80;;;23.70;99.90;;;;;;5064668;28;20493;-56
2021/08/06 11:42:41;;;;;;;1.90;1.80;;;24.00;99.90;;;;;;5073011;28;20482;-56
2021/08/06 11:45:13;;;;;;;2.23;2.03;;;23.40;99.90;;;;;;5064154;28;20452;-57
2021/08/06 11:47:42;;;;;;;2.43;1.80;;;23.40;99.90;;;;;;5057721;28;20554;-56
2021/08/06 11:50:13;;;;;;;1.80;1.70;;;23.90;99.90;;;;;;5074635;28;20539;-57
2021/08/06 11:52:43;;;;;;;3.30;3.00;;;24.20;99.90;;;;;;5074938;28;20504;-57
2021/08/06 11:55:12;;;;;;;2.00;1.70;;;23.80;99.90;;;;;;5074580;28;20454;-57
2021/08/06 11:57:50;;;;;;;1.70;1.60;;;23.50;99.90;;;;;;5074095;28;20960;-56
2021/08/06 12:00:29;;;;;;;4.50;1.70;;;23.80;99.90;;;;;;5069487;28;20474;-57
2021/08/06 12:03:12;;;;;;;2.60;1.70;;;23.90;99.90;;;;;;5063319;28;20510;-56
2021/08/06 12:05:44;;;;;;;3.13;1.93;;;23.80;99.90;;;;;;5070887;28;20521;-56
2021/08/06 12:08:20;;;;;;;2.20;1.90;;;23.50;99.90;;;;;;5066609;28;20524;-57
2021/08/06 12:10:49;;;;;;;1.80;1.70;;;23.60;99.90;;;;;;5062610;28;20498;-57
2021/08/06 12:13:20;;;;;;;3.70;1.90;;;24.00;99.90;;;;;;5065928;28;20948;-57
2021/08/06 12:15:47;;;;;;;1.70;1.60;;;24.00;99.90;;;;;;5065417;28;20508;-57
2021/08/06 12:18:17;;;;;;;2.20;1.83;;;23.90;99.90;;;;;;5066006;28;20541;-56
2021/08/06 12:20:48;;;;;;;2.50;2.30;;;24.20;99.90;;;;;;5067801;28;20475;-57
2021/08/06 12:23:18;;;;;;;3.00;1.83;;;24.20;99.90;;;;;;5065237;28;20531;-57
2021/08/06 12:26:10;;;;;;;2.20;2.00;;;23.90;99.90;;;;;;5066468;28;20553;-57
2021/08/06 12:28:39;;;;;;;2.03;1.90;;;24.00;99.90;;;;;;5066055;28;20461;-56
2021/08/06 12:31:11;;;;;;;2.60;1.63;;;24.00;99.90;;;;;;5064998;28;21015;-57
2021/08/06 12:33:39;;;;;;;4.33;2.07;;;23.90;99.90;;;;;;5065265;28;21006;-57
2021/08/06 12:36:13;;;;;;;2.60;2.10;;;23.80;99.90;;;;;;5064824;28;20527;-57
2021/08/06 12:38:40;;;;;;;2.70;1.60;;;24.20;99.90;;;;;;5066325;28;21002;-57
2021/08/06 12:41:07;;;;;;;3.90;2.47;;;24.20;99.90;;;;;;5066208;28;20482;-57
2021/08/06 12:43:34;;;;;;;2.13;1.70;;;23.90;99.90;;;;;;5065294;28;20478;-57
2021/08/06 12:46:15;;;;;;;2.27;1.93;;;23.80;99.90;;;;;;5066240;28;20455;-56
2021/08/06 12:49:05;;;;;;;2.10;1.93;;;23.70;99.90;;;;;;5064484;28;20460;-56
2021/08/06 12:51:34;;;;;;;3.20;1.90;;;23.70;99.90;;;;;;5069432;28;20558;-57
2021/08/06 12:54:01;;;;;;;1.90;1.70;;;24.00;99.90;;;;;;5064278;28;20447;-56
2021/08/06 12:56:28;;;;;;;2.10;1.63;;;23.60;99.90;;;;;;5065996;28;20877;-57
2021/08/06 12:59:17;;;;;;;2.87;1.70;;;23.70;99.90;;;;;;5071751;28;20471;-56
2021/08/06 13:01:44;;;;;;;2.30;2.10;;;23.60;99.90;;;;;;5064421;28;20563;-56
2021/08/06 13:04:11;;;;;;;3.50;2.10;;;23.30;99.90;;;;;;5071324;28;20543;-56